Time;durP1;ratioP1;P1;durP2;ratioP2;P2;SDS_P1;SDS_P2;PMS_P1;PMS_P2;Temp;Humidity;BMP_temperature;BMP_pressure;BME280_temperature;BME280_humidity;BME280_pressure;Samples;Min_cycle;Max_cycle;Signal;HPM_P1;HPM_P2
2024/01/14 00:01:57;;;;;;;13.95;1.48;;;5.70;99.90;;;;;;5109812;27;20395;-92
2024/01/14 00:04:23;;;;;;;13.95;1.73;;;5.90;99.90;;;;;;5113096;27;20399;-93
2024/01/14 00:06:49;;;;;;;15.13;1.35;;;5.90;99.90;;;;;;5130758;27;20450;-92
2024/01/14 00:09:19;;;;;;;15.50;1.50;;;5.70;99.90;;;;;;5131693;27;20386;-92
2024/01/14 00:11:45;;;;;;;16.42;1.58;;;5.70;99.90;;;;;;5131393;27;20404;-91
2024/01/14 00:14:10;;;;;;;14.50;1.83;;;5.70;99.90;;;;;;5131029;27;21213;-91
2024/01/14 00:16:36;;;;;;;15.95;1.63;;;5.90;99.90;;;;;;5131476;27;20444;-93
2024/01/14 00:19:05;;;;;;;13.05;1.48;;;5.80;99.90;;;;;;5148016;27;20426;-94
2024/01/14 00:21:32;;;;;;;14.55;0.80;;;5.80;99.90;;;;;;5131518;27;20409;-94
2024/01/14 00:23:57;;;;;;;14.13;1.50;;;5.80;99.90;;;;;;5130384;27;20404;-94
2024/01/14 00:26:25;;;;;;;15.43;1.30;;;6.00;99.90;;;;;;5131072;27;20405;-92
2024/01/14 00:28:58;;;;;;;15.80;1.60;;;5.80;99.90;;;;;;5131673;27;20858;-92
2024/01/14 00:31:24;;;;;;;13.93;1.48;;;5.80;99.90;;;;;;5130596;27;20627;-92
2024/01/14 00:33:50;;;;;;;13.87;1.27;;;5.70;99.90;;;;;;5148900;27;20396;-88
2024/01/14 00:36:17;;;;;;;13.68;1.45;;;5.60;99.90;;;;;;5130027;27;20509;-90
2024/01/14 00:38:44;;;;;;;14.10;1.10;;;5.50;99.90;;;;;;5131117;27;20417;-91
2024/01/14 00:41:10;;;;;;;17.38;1.17;;;5.30;99.90;;;;;;5130217;27;20393;-92
2024/01/14 00:43:35;;;;;;;12.73;1.52;;;5.30;99.90;;;;;;5148818;27;20401;-91
2024/01/14 00:46:04;;;;;;;12.30;1.27;;;5.40;99.90;;;;;;5130540;27;20821;-89
2024/01/14 00:48:30;;;;;;;15.05;1.15;;;5.20;99.90;;;;;;5111959;27;20403;-89
2024/01/14 00:50:56;;;;;;;12.40;0.90;;;5.00;99.90;;;;;;5123918;27;20397;-88
2024/01/14 00:53:22;;;;;;;13.85;1.13;;;5.00;99.90;;;;;;5130330;27;20424;-91
2024/01/14 00:55:48;;;;;;;13.32;0.80;;;4.90;99.90;;;;;;5127060;27;21088;-90
2024/01/14 00:58:14;;;;;;;13.55;1.52;;;4.90;99.90;;;;;;5109053;27;20414;-90
2024/01/14 01:00:39;;;;;;;13.07;1.23;;;5.10;99.90;;;;;;5110454;28;20807;-90
2024/01/14 01:03:05;;;;;;;14.10;1.17;;;4.90;99.90;;;;;;5111781;27;20841;-93
2024/01/14 01:05:31;;;;;;;14.63;1.10;;;4.90;99.90;;;;;;5140087;27;20381;-89
2024/01/14 01:07:56;;;;;;;16.48;1.30;;;5.00;99.90;;;;;;5134940;27;20534;-93
2024/01/14 01:10:22;;;;;;;14.73;0.93;;;4.90;99.90;;;;;;5134361;27;20875;-92
2024/01/14 01:12:48;;;;;;;13.48;0.60;;;4.70;99.90;;;;;;5134586;27;20389;-88
2024/01/14 01:15:13;;;;;;;13.97;1.00;;;4.70;99.90;;;;;;5150958;27;20404;-87
2024/01/14 01:17:40;;;;;;;13.70;1.00;;;4.60;99.90;;;;;;5133797;27;20424;-88
2024/01/14 01:20:08;;;;;;;18.65;1.20;;;4.50;99.90;;;;;;5127768;27;20468;-87
2024/01/14 01:22:34;;;;;;;13.45;0.93;;;4.50;99.90;;;;;;5112760;27;20415;-88
2024/01/14 01:25:00;;;;;;;18.42;1.23;;;4.40;99.90;;;;;;5113616;27;20386;-87
2024/01/14 01:27:26;;;;;;;15.23;1.00;;;4.30;99.90;;;;;;5129244;27;20789;-88
2024/01/14 01:29:52;;;;;;;14.70;1.07;;;4.30;99.90;;;;;;5134094;27;20401;-87
2024/01/14 01:32:20;;;;;;;14.05;0.70;;;4.20;99.90;;;;;;5132047;27;20497;-88
2024/01/14 01:34:46;;;;;;;13.67;1.00;;;4.00;99.90;;;;;;5133542;27;20562;-88
2024/01/14 01:37:12;;;;;;;12.70;0.70;;;4.00;99.90;;;;;;5133252;27;20423;-88
2024/01/14 01:39:37;;;;;;;11.30;0.65;;;3.90;99.90;;;;;;5133416;27;20405;-89
2024/01/14 01:42:04;;;;;;;12.98;0.50;;;3.80;99.90;;;;;;5133092;27;20457;-89
2024/01/14 01:44:29;;;;;;;10.82;0.60;;;3.70;99.90;;;;;;5150234;27;20480;-89
2024/01/14 01:46:56;;;;;;;16.17;0.90;;;3.60;99.90;;;;;;5133442;27;20480;-88
2024/01/14 01:49:22;;;;;;;17.13;1.00;;;3.60;99.90;;;;;;5132925;27;20425;-88
2024/01/14 01:51:50;;;;;;;13.10;0.75;;;3.50;99.90;;;;;;5115274;27;20772;-88
2024/01/14 01:54:20;;;;;;;13.02;1.30;;;3.40;99.90;;;;;;5112295;27;20399;-89
2024/01/14 01:56:46;;;;;;;17.05;0.73;;;3.50;99.90;;;;;;5112611;27;20757;-88
2024/01/14 01:59:13;;;;;;;14.10;1.17;;;3.50;99.90;;;;;;5111936;27;20917;-88
2024/01/14 02:01:39;;;;;;;15.70;0.63;;;3.30;99.90;;;;;;5112479;27;20815;-88
2024/01/14 02:04:07;;;;;;;15.15;1.10;;;3.40;99.90;;;;;;5132819;27;20530;-88
2024/01/14 02:06:33;;;;;;;12.55;0.70;;;3.30;99.90;;;;;;5150096;27;20408;-87
2024/01/14 02:08:59;;;;;;;15.97;1.00;;;3.30;99.90;;;;;;5133201;27;20922;-89
2024/01/14 02:11:25;;;;;;;13.35;0.60;;;3.20;99.90;;;;;;5132340;27;20389;-88
2024/01/14 02:13:51;;;;;;;15.67;1.20;;;3.10;99.90;;;;;;5132657;27;20396;-88
2024/01/14 02:16:16;;;;;;;20.27;1.63;;;3.40;99.90;;;;;;5132369;27;20397;-91
2024/01/14 02:18:42;;;;;;;15.03;1.00;;;3.20;99.90;;;;;;5132936;27;20428;-88
2024/01/14 02:21:17;;;;;;;17.63;1.00;;;3.10;99.90;;;;;;5133002;27;20488;-88
2024/01/14 02:23:49;;;;;;;16.88;1.10;;;3.00;99.90;;;;;;5132136;27;20500;-89
2024/01/14 02:26:15;;;;;;;18.40;0.95;;;3.00;99.90;;;;;;5132838;27;20393;-88
2024/01/14 02:28:41;;;;;;;22.70;1.73;;;3.00;99.90;;;;;;5149479;27;20817;-89
2024/01/14 02:31:07;;;;;;;22.67;1.47;;;3.00;99.90;;;;;;5132520;27;20891;-88
2024/01/14 02:33:33;;;;;;;23.25;1.13;;;3.00;99.90;;;;;;5132098;27;20527;-88
2024/01/14 02:35:58;;;;;;;26.00;1.30;;;3.00;99.90;;;;;;5132995;27;20428;-88
2024/01/14 02:38:24;;;;;;;20.13;1.33;;;3.30;99.90;;;;;;5132309;27;20429;-88
2024/01/14 02:40:50;;;;;;;23.27;1.58;;;3.00;99.90;;;;;;5132734;27;20437;-89
2024/01/14 02:43:15;;;;;;;23.30;1.23;;;3.10;99.90;;;;;;5113284;27;20398;-89
2024/01/14 02:45:41;;;;;;;21.37;1.50;;;3.10;99.90;;;;;;5111585;27;20426;-89
2024/01/14 02:48:07;;;;;;;25.47;1.60;;;3.60;99.90;;;;;;5129300;27;20739;-89
2024/01/14 02:50:32;;;;;;;25.63;1.50;;;3.20;99.90;;;;;;5111450;27;20434;-90
2024/01/14 02:52:58;;;;;;;18.98;1.40;;;3.40;99.90;;;;;;5111821;27;20924;-89
2024/01/14 02:55:23;;;;;;;19.23;1.17;;;3.30;99.90;;;;;;5111412;27;20423;-88
2024/01/14 02:57:49;;;;;;;25.97;2.00;;;3.30;99.90;;;;;;5111476;27;20430;-88
2024/01/14 03:00:15;;;;;;;24.08;1.90;;;3.30;99.90;;;;;;5111615;27;20387;-88
2024/01/14 03:02:41;;;;;;;24.33;1.60;;;3.30;99.90;;;;;;5111021;27;20808;-89
2024/01/14 03:05:07;;;;;;;20.27;1.83;;;3.30;99.90;;;;;;5111542;27;20527;-89
2024/01/14 03:07:33;;;;;;;20.23;1.58;;;3.30;99.90;;;;;;5110251;27;20438;-90
2024/01/14 03:09:58;;;;;;;19.85;1.35;;;3.20;99.90;;;;;;5127292;27;20401;-88
2024/01/14 03:12:24;;;;;;;20.63;1.85;;;3.10;99.90;;;;;;5131867;27;20423;-90
2024/01/14 03:14:50;;;;;;;20.83;1.40;;;3.10;99.90;;;;;;5125987;27;20464;-89
2024/01/14 03:17:15;;;;;;;20.97;1.70;;;3.00;99.90;;;;;;5111315;27;20423;-89
2024/01/14 03:19:41;;;;;;;24.48;1.10;;;3.00;99.90;;;;;;5111250;27;20474;-89
2024/01/14 03:22:07;;;;;;;17.27;1.40;;;2.90;99.90;;;;;;5111318;27;20858;-90
2024/01/14 03:24:33;;;;;;;17.87;1.30;;;2.90;99.90;;;;;;5110453;27;20761;-89
2024/01/14 03:26:58;;;;;;;24.93;1.30;;;2.90;99.90;;;;;;5111097;27;20844;-89
2024/01/14 03:29:24;;;;;;;25.17;2.20;;;2.90;99.90;;;;;;5112065;27;20413;-89
2024/01/14 03:31:49;;;;;;;22.17;1.60;;;2.90;99.90;;;;;;5131524;27;20401;-90
2024/01/14 03:34:16;;;;;;;24.50;1.67;;;3.00;99.90;;;;;;5131210;27;20432;-89
2024/01/14 03:36:41;;;;;;;22.65;2.17;;;3.00;99.90;;;;;;5131557;27;20980;-89
2024/01/14 03:39:07;;;;;;;25.10;1.70;;;2.90;99.90;;;;;;5131698;27;20449;-88
2024/01/14 03:41:33;;;;;;;20.67;1.60;;;3.10;99.90;;;;;;5131535;27;20437;-88
2024/01/14 03:43:58;;;;;;;19.17;1.30;;;3.10;99.90;;;;;;5128287;27;20435;-90
2024/01/14 03:46:24;;;;;;;18.75;1.60;;;3.10;99.90;;;;;;5148246;27;20396;-90
2024/01/14 03:48:50;;;;;;;16.10;1.85;;;3.30;99.90;;;;;;5131743;27;20424;-88
2024/01/14 03:51:15;;;;;;;18.73;1.40;;;3.10;99.90;;;;;;5131296;27;20434;-89
2024/01/14 03:53:41;;;;;;;19.70;1.30;;;3.20;99.90;;;;;;5131015;27;20397;-90
2024/01/14 03:56:07;;;;;;;18.02;1.25;;;3.20;99.90;;;;;;5130499;27;20412;-89
2024/01/14 03:58:32;;;;;;;23.83;1.98;;;3.20;99.90;;;;;;5110501;27;20970;-89
2024/01/14 04:00:58;;;;;;;16.37;1.33;;;3.10;99.90;;;;;;5119949;27;20412;-89
2024/01/14 04:03:24;;;;;;;14.53;1.20;;;3.30;99.90;;;;;;5130601;27;20506;-89
2024/01/14 04:05:49;;;;;;;19.52;1.35;;;3.20;99.90;;;;;;5131672;27;20381;-88
2024/01/14 04:08:15;;;;;;;20.50;1.65;;;3.20;99.90;;;;;;5130557;27;20412;-89
2024/01/14 04:10:40;;;;;;;20.87;1.77;;;3.30;99.90;;;;;;5148785;27;20445;-90
2024/01/14 04:13:06;;;;;;;20.83;1.92;;;3.10;99.90;;;;;;5131125;27;20442;-90
2024/01/14 04:15:32;;;;;;;17.17;1.42;;;3.10;99.90;;;;;;5126606;27;20473;-90
2024/01/14 04:17:57;;;;;;;21.27;1.30;;;3.00;99.90;;;;;;5110881;27;20433;-89
2024/01/14 04:20:23;;;;;;;19.77;1.77;;;2.90;99.90;;;;;;5110220;28;20410;-90
2024/01/14 04:22:49;;;;;;;27.87;1.50;;;2.90;99.90;;;;;;5110427;28;20975;-89
2024/01/14 04:25:15;;;;;;;24.80;1.80;;;2.90;99.90;;;;;;5110021;28;20540;-90
2024/01/14 04:27:41;;;;;;;23.70;2.33;;;2.80;99.90;;;;;;5110844;28;20414;-90
2024/01/14 04:30:07;;;;;;;20.83;1.85;;;2.70;99.90;;;;;;5110229;27;20893;-90
2024/01/14 04:32:33;;;;;;;22.92;1.92;;;2.70;99.90;;;;;;5130888;27;20491;-88
2024/01/14 04:34:59;;;;;;;20.52;2.08;;;2.80;99.90;;;;;;5130922;27;20485;-90
2024/01/14 04:37:25;;;;;;;22.35;1.58;;;2.60;99.90;;;;;;5133879;27;20911;-90
2024/01/14 04:39:50;;;;;;;23.70;1.97;;;2.50;99.90;;;;;;5135438;27;20392;-89
2024/01/14 04:42:16;;;;;;;22.67;1.67;;;2.50;99.90;;;;;;5134564;27;20914;-90
2024/01/14 04:44:42;;;;;;;22.40;1.70;;;2.50;99.90;;;;;;5135133;27;20439;-90
2024/01/14 04:47:08;;;;;;;24.37;1.60;;;2.60;99.90;;;;;;5134565;27;20393;-90
2024/01/14 04:49:33;;;;;;;22.65;1.77;;;2.50;99.90;;;;;;5135153;27;20389;-89
2024/01/14 04:51:59;;;;;;;30.88;2.67;;;2.40;99.90;;;;;;5135077;27;20423;-89
2024/01/14 04:54:25;;;;;;;21.92;1.90;;;2.50;99.90;;;;;;5134811;27;20385;-90
2024/01/14 04:56:52;;;;;;;26.90;1.83;;;2.50;99.90;;;;;;5135401;27;20471;-89
2024/01/14 04:59:17;;;;;;;24.42;2.00;;;2.50;99.90;;;;;;5134504;27;20405;-90
2024/01/14 05:01:43;;;;;;;25.73;2.30;;;2.50;99.90;;;;;;5134662;27;20396;-90
2024/01/14 05:04:09;;;;;;;26.98;2.30;;;2.50;99.90;;;;;;5134253;27;20423;-90
2024/01/14 05:06:37;;;;;;;28.93;2.40;;;2.60;99.90;;;;;;5134686;27;20396;-89
2024/01/14 05:09:03;;;;;;;23.50;1.80;;;2.60;99.90;;;;;;5133669;27;20397;-89
2024/01/14 05:11:29;;;;;;;23.75;1.92;;;2.60;99.90;;;;;;5151954;27;20729;-90
2024/01/14 05:13:54;;;;;;;29.02;2.35;;;2.60;99.90;;;;;;5134884;27;20399;-90
2024/01/14 05:16:20;;;;;;;24.63;1.95;;;2.60;99.90;;;;;;5134298;27;20871;-90
2024/01/14 05:18:46;;;;;;;24.60;1.97;;;2.70;99.90;;;;;;5134468;27;20481;-90
2024/01/14 05:21:18;;;;;;;26.37;2.70;;;2.70;99.90;;;;;;5133880;27;20545;-90
2024/01/14 05:23:44;;;;;;;27.35;2.17;;;2.70;99.90;;;;;;5134391;27;20794;-90
2024/01/14 05:26:10;;;;;;;20.77;2.08;;;2.80;99.90;;;;;;5133835;27;20393;-91
2024/01/14 05:28:35;;;;;;;25.13;2.43;;;2.80;99.90;;;;;;5151409;27;20397;-90
2024/01/14 05:31:01;;;;;;;27.40;2.97;;;2.80;99.90;;;;;;5145867;27;20881;-90
2024/01/14 05:33:27;;;;;;;24.27;2.55;;;3.00;99.90;;;;;;5113580;27;20425;-91
2024/01/14 05:35:53;;;;;;;19.38;2.03;;;2.90;99.90;;;;;;5113917;27;20985;-90
2024/01/14 05:38:18;;;;;;;19.67;2.20;;;2.90;99.90;;;;;;5112812;27;20730;-89
2024/01/14 05:40:44;;;;;;;23.15;1.80;;;3.20;99.90;;;;;;5130817;27;20964;-90
2024/01/14 05:43:10;;;;;;;24.00;2.25;;;2.90;99.90;;;;;;5112829;27;20436;-90
2024/01/14 05:45:35;;;;;;;20.10;2.00;;;2.90;99.90;;;;;;5112962;27;20418;-89
2024/01/14 05:48:01;;;;;;;25.65;2.38;;;2.90;99.90;;;;;;5111867;27;20471;-90
2024/01/14 05:50:26;;;;;;;24.57;2.40;;;2.90;99.90;;;;;;5113582;27;20414;-90
2024/01/14 05:52:52;;;;;;;22.17;2.00;;;3.20;99.90;;;;;;5113372;27;20398;-91
2024/01/14 05:55:18;;;;;;;24.67;2.13;;;3.00;99.90;;;;;;5113145;27;20494;-90
2024/01/14 05:57:43;;;;;;;20.55;2.42;;;2.80;99.90;;;;;;5114567;27;20785;-91
2024/01/14 06:00:09;;;;;;;22.67;2.07;;;2.80;99.90;;;;;;5133137;27;20389;-91
2024/01/14 06:02:35;;;;;;;27.95;1.92;;;2.70;99.90;;;;;;5116313;27;20452;-90
2024/01/14 06:05:01;;;;;;;28.03;2.63;;;2.70;99.90;;;;;;5112777;27;20448;-90
2024/01/14 06:07:26;;;;;;;22.52;1.90;;;2.80;99.90;;;;;;5113362;27;20505;-89
2024/01/14 06:09:52;;;;;;;21.88;2.15;;;2.90;99.90;;;;;;5112907;27;20455;-89
2024/01/14 06:12:17;;;;;;;19.40;1.90;;;2.70;99.90;;;;;;5112589;27;20434;-91
2024/01/14 06:14:43;;;;;;;22.00;2.60;;;2.80;99.90;;;;;;5111770;27;20546;-90
2024/01/14 06:17:09;;;;;;;17.60;1.97;;;2.80;99.90;;;;;;5128466;27;20421;-90
2024/01/14 06:19:35;;;;;;;25.20;2.50;;;3.00;99.90;;;;;;5133057;27;20484;-90
2024/01/14 06:22:00;;;;;;;24.15;2.72;;;2.80;99.90;;;;;;5149766;27;20400;-89
2024/01/14 06:24:26;;;;;;;20.25;2.50;;;2.70;99.90;;;;;;5132751;27;20409;-90
2024/01/14 06:26:52;;;;;;;21.15;2.75;;;2.70;99.90;;;;;;5114067;27;20398;-90
2024/01/14 06:29:19;;;;;;;21.00;3.20;;;3.00;99.90;;;;;;5112019;27;20390;-91
2024/01/14 06:31:45;;;;;;;22.00;2.95;;;2.50;99.90;;;;;;5112175;27;20418;-91
2024/01/14 06:34:11;;;;;;;18.17;2.20;;;2.50;99.90;;;;;;5111765;27;21022;-90
2024/01/14 06:36:37;;;;;;;18.65;1.42;;;2.50;99.90;;;;;;5146386;27;20410;-90
2024/01/14 06:39:05;;;;;;;18.40;2.28;;;2.50;99.90;;;;;;5111440;27;20906;-90
2024/01/14 06:41:31;;;;;;;20.80;1.90;;;2.40;99.90;;;;;;5112477;27;20406;-89
2024/01/14 06:43:57;;;;;;;26.30;2.42;;;2.40;99.90;;;;;;5111828;27;20928;-87
2024/01/14 06:46:22;;;;;;;20.27;2.00;;;2.40;99.90;;;;;;5116516;27;20978;-90
2024/01/14 06:48:48;;;;;;;20.63;1.80;;;2.40;99.90;;;;;;5132548;27;20401;-89
2024/01/14 06:51:14;;;;;;;23.83;2.00;;;2.40;99.90;;;;;;5114961;27;20778;-90
2024/01/14 06:53:40;;;;;;;19.88;1.85;;;2.40;99.90;;;;;;5129562;27;20420;-89
2024/01/14 06:56:06;;;;;;;19.75;1.73;;;2.50;99.90;;;;;;5128739;27;20402;-89
2024/01/14 06:58:33;;;;;;;22.88;1.55;;;2.70;99.90;;;;;;5111915;27;20433;-90
2024/01/14 07:00:59;;;;;;;21.15;1.55;;;2.60;99.90;;;;;;5110801;27;20956;-90
2024/01/14 07:03:24;;;;;;;19.20;1.52;;;2.50;99.90;;;;;;5132642;27;20403;-90
2024/01/14 07:05:50;;;;;;;19.43;1.30;;;2.80;99.90;;;;;;5131894;27;20389;-90
2024/01/14 07:08:16;;;;;;;18.87;1.70;;;2.50;99.90;;;;;;5132565;27;20417;-92
2024/01/14 07:10:41;;;;;;;18.10;1.67;;;2.60;99.90;;;;;;5149387;27;20445;-90
2024/01/14 07:13:08;;;;;;;20.98;1.77;;;2.50;99.90;;;;;;5131948;27;20406;-89
2024/01/14 07:15:33;;;;;;;19.95;2.45;;;2.50;99.90;;;;;;5123314;27;20439;-89
2024/01/14 07:17:59;;;;;;;13.97;1.10;;;2.50;99.90;;;;;;5127562;27;20456;-89
2024/01/14 07:20:25;;;;;;;18.47;1.67;;;2.40;99.90;;;;;;5132445;27;20495;-90
2024/01/14 07:22:51;;;;;;;18.40;1.75;;;2.50;99.90;;;;;;5131372;27;20412;-88
2024/01/14 07:25:17;;;;;;;19.77;1.33;;;2.50;99.90;;;;;;5132209;27;20553;-89
2024/01/14 07:27:43;;;;;;;18.98;1.52;;;2.50;99.90;;;;;;5148717;27;20389;-89
2024/01/14 07:30:08;;;;;;;15.68;1.30;;;2.50;99.90;;;;;;5111204;27;20474;-91
2024/01/14 07:32:34;;;;;;;19.08;1.00;;;2.50;99.90;;;;;;5111529;27;20455;-90
2024/01/14 07:35:00;;;;;;;14.73;0.88;;;2.60;99.90;;;;;;5110472;27;20411;-90
2024/01/14 07:37:25;;;;;;;11.87;0.90;;;2.90;99.90;;;;;;5111280;27;20500;-89
2024/01/14 07:39:51;;;;;;;11.97;0.80;;;2.60;99.90;;;;;;5110610;27;20411;-89
2024/01/14 07:42:32;;;;;;;13.73;0.57;;;2.60;99.90;;;;;;5123994;27;20410;-92
2024/01/14 07:44:58;;;;;;;11.82;0.90;;;2.60;99.90;;;;;;5133704;27;20465;-92
2024/01/14 07:48:30;;;;;;;11.13;0.80;;;2.80;99.90;;;;;;5109378;27;20394;-92
2024/01/14 07:51:50;;;;;;;13.82;0.85;;;2.80;99.90;;;;;;5048737;28;20710;-93
2024/01/14 07:54:22;;;;;;;11.00;0.90;;;2.90;99.90;;;;;;5007710;28;20420;-93
2024/01/14 07:57:12;;;;;;;13.43;1.42;;;2.90;99.90;;;;;;5001319;28;20406;-92
2024/01/14 08:00:04;;;;;;;12.73;1.00;;;2.90;99.90;;;;;;5055385;28;20413;-92
2024/01/14 08:02:35;;;;;;;10.50;0.73;;;2.90;99.90;;;;;;5023095;28;20449;-92
2024/01/14 08:05:04;;;;;;;14.00;1.63;;;2.80;99.90;;;;;;5051607;28;20417;-93
2024/01/14 08:07:39;;;;;;;10.70;1.15;;;2.80;99.90;;;;;;5106405;27;21497;-93
2024/01/14 08:10:05;;;;;;;12.43;2.40;;;2.60;99.90;;;;;;5110809;27;20430;-91
2024/01/14 08:12:31;;;;;;;15.10;2.40;;;2.70;99.90;;;;;;5110235;27;20395;-89
2024/01/14 08:14:57;;;;;;;13.53;2.63;;;2.60;99.90;;;;;;5110484;28;20395;-90
2024/01/14 08:17:22;;;;;;;12.57;1.57;;;2.80;99.90;;;;;;5127725;27;20498;-89
2024/01/14 08:19:48;;;;;;;10.40;1.63;;;2.60;99.90;;;;;;5110362;27;20407;-89
2024/01/14 08:22:20;;;;;;;11.20;1.25;;;2.60;99.90;;;;;;5127887;27;20800;-90
2024/01/14 08:24:45;;;;;;;11.82;1.80;;;2.70;99.90;;;;;;5110112;28;20409;-89
2024/01/14 08:27:11;;;;;;;14.47;3.80;;;2.60;99.90;;;;;;5125462;27;20388;-93
2024/01/14 08:29:37;;;;;;;14.40;3.10;;;2.60;99.90;;;;;;5130912;27;20459;-92
2024/01/14 08:32:02;;;;;;;13.52;2.22;;;2.60;99.90;;;;;;5130507;27;20500;-90
2024/01/14 08:34:28;;;;;;;13.60;1.02;;;2.60;99.90;;;;;;5131094;27;20396;-90
2024/01/14 08:36:54;;;;;;;12.52;0.90;;;2.70;99.90;;;;;;5130791;27;20397;-92
2024/01/14 08:39:19;;;;;;;13.83;1.20;;;2.70;99.90;;;;;;5115659;27;20399;-90
2024/01/14 08:42:00;;;;;;;13.68;0.80;;;2.70;99.90;;;;;;5109751;27;20596;-91
2024/01/14 08:44:32;;;;;;;12.75;1.45;;;2.70;99.90;;;;;;5109308;27;20492;-91
2024/01/14 08:47:20;;;;;;;11.68;1.10;;;2.70;99.90;;;;;;5111959;27;20404;-91
2024/01/14 08:49:45;;;;;;;15.65;1.20;;;2.70;99.90;;;;;;5127421;27;20408;-90
2024/01/14 08:52:11;;;;;;;13.27;0.90;;;2.70;99.90;;;;;;5103617;28;20406;-91
2024/01/14 08:54:37;;;;;;;14.63;1.00;;;2.80;99.90;;;;;;5125427;27;20401;-92
2024/01/14 08:57:03;;;;;;;14.87;1.60;;;2.70;99.90;;;;;;5112041;28;20406;-90
2024/01/14 08:59:29;;;;;;;13.85;1.20;;;2.60;99.90;;;;;;5116180;27;20389;-90
2024/01/14 09:01:55;;;;;;;16.27;1.60;;;2.70;99.90;;;;;;5126181;27;20415;-90
2024/01/14 09:04:20;;;;;;;13.87;1.27;;;2.70;99.90;;;;;;5108694;28;20459;-90
2024/01/14 09:06:46;;;;;;;13.55;1.33;;;2.80;99.90;;;;;;5127054;27;20487;-90
2024/01/14 09:09:12;;;;;;;18.80;1.40;;;3.00;99.90;;;;;;5116173;28;20853;-90
2024/01/14 09:11:38;;;;;;;17.13;1.98;;;2.70;99.90;;;;;;5134751;27;20407;-90
2024/01/14 09:14:05;;;;;;;17.33;1.50;;;2.70;99.90;;;;;;5125120;27;20501;-90
2024/01/14 09:16:30;;;;;;;13.80;0.98;;;2.80;99.90;;;;;;5109487;28;20860;-90
2024/01/14 09:18:56;;;;;;;17.25;1.83;;;2.90;99.90;;;;;;5108135;28;20457;-91
2024/01/14 09:21:22;;;;;;;13.37;1.20;;;2.80;99.90;;;;;;5122860;27;20385;-90
2024/01/14 09:23:47;;;;;;;16.77;1.50;;;2.80;99.90;;;;;;5121604;27;20963;-90
2024/01/14 09:26:13;;;;;;;14.77;1.40;;;2.80;99.90;;;;;;5133697;27;20846;-92
2024/01/14 09:28:39;;;;;;;15.02;1.55;;;2.80;99.90;;;;;;5132936;27;20430;-88
2024/01/14 09:31:05;;;;;;;14.93;1.20;;;2.90;99.90;;;;;;5113027;27;20437;-91
2024/01/14 09:33:31;;;;;;;13.75;1.48;;;2.90;99.90;;;;;;5144671;27;20385;-91
2024/01/14 09:36:05;;;;;;;16.10;1.40;;;3.00;99.90;;;;;;5126187;27;20408;-91
2024/01/14 09:38:31;;;;;;;15.38;1.80;;;3.00;99.90;;;;;;5126897;27;20453;-92
2024/01/14 09:41:11;;;;;;;13.98;1.88;;;3.20;99.90;;;;;;5112600;27;20403;-91
2024/01/14 09:43:43;;;;;;;15.93;1.73;;;3.10;99.90;;;;;;5132219;27;20446;-91
2024/01/14 09:46:09;;;;;;;15.63;2.07;;;3.40;99.90;;;;;;5113123;27;20430;-91
2024/01/14 09:48:36;;;;;;;12.67;1.40;;;3.50;99.90;;;;;;5126156;27;20824;-91
2024/01/14 09:51:03;;;;;;;12.95;1.83;;;3.60;99.90;;;;;;5122085;27;20815;-90
2024/01/14 09:53:29;;;;;;;15.90;1.70;;;3.90;99.90;;;;;;5116451;27;20438;-92
2024/01/14 09:55:58;;;;;;;16.27;1.30;;;4.10;99.90;;;;;;5132630;27;20389;-91
2024/01/14 09:58:24;;;;;;;12.88;1.90;;;4.10;99.90;;;;;;5111204;27;20422;-91
2024/01/14 10:00:51;;;;;;;11.15;0.85;;;4.30;99.90;;;;;;5128501;27;20413;-92
2024/01/14 10:03:17;;;;;;;12.30;1.27;;;4.20;99.90;;;;;;5111302;27;20401;-94
2024/01/14 10:05:44;;;;;;;16.55;1.60;;;4.20;99.90;;;;;;5117366;27;20397;-93
2024/01/14 10:08:10;;;;;;;15.80;1.48;;;4.20;99.90;;;;;;5130045;27;20748;-92
2024/01/14 10:10:36;;;;;;;14.47;1.13;;;4.10;99.90;;;;;;5111210;27;20399;-93
2024/01/14 10:13:03;;;;;;;11.63;0.70;;;4.30;99.90;;;;;;5128123;27;20398;-93
2024/01/14 10:15:32;;;;;;;16.13;1.30;;;4.20;99.90;;;;;;5111529;27;20404;-92
2024/01/14 10:17:58;;;;;;;15.90;1.20;;;4.40;99.90;;;;;;5118965;27;20425;-92
2024/01/14 10:20:23;;;;;;;10.03;1.30;;;4.50;99.90;;;;;;5128797;27;20395;-92
2024/01/14 10:22:50;;;;;;;13.33;1.37;;;4.50;99.90;;;;;;5110724;27;20399;-92
2024/01/14 10:25:18;;;;;;;12.77;1.63;;;4.60;99.90;;;;;;5111537;27;20493;-92
2024/01/14 10:27:44;;;;;;;14.05;1.23;;;4.70;99.90;;;;;;5124316;27;20425;-92
2024/01/14 10:30:10;;;;;;;14.82;1.17;;;4.70;99.90;;;;;;5122509;27;20438;-92
2024/01/14 10:32:36;;;;;;;11.75;0.80;;;4.70;99.90;;;;;;5132205;27;20452;-91
2024/01/14 10:35:13;;;;;;;12.75;1.25;;;4.70;99.90;;;;;;5131325;27;20472;-92
2024/01/14 10:37:39;;;;;;;13.45;1.30;;;4.70;99.90;;;;;;5091093;28;20428;-91
2024/01/14 10:40:08;;;;;;;10.25;0.75;;;4.40;99.90;;;;;;5123737;27;20501;-92
2024/01/14 10:42:36;;;;;;;14.25;1.45;;;4.70;99.90;;;;;;5110717;27;20424;-94
2024/01/14 10:45:06;;;;;;;10.38;1.23;;;5.10;99.90;;;;;;5109668;27;20398;-94
2024/01/14 10:47:34;;;;;;;12.35;0.93;;;4.90;99.90;;;;;;5112353;27;20398;-92
2024/01/14 10:50:00;;;;;;;14.38;1.40;;;4.90;99.90;;;;;;5111200;27;20403;-92
2024/01/14 10:52:30;;;;;;;10.50;0.90;;;5.00;99.90;;;;;;5111663;27;20399;-93
2024/01/14 10:54:58;;;;;;;13.93;1.08;;;5.10;99.90;;;;;;5111568;27;20805;-92
2024/01/14 10:57:34;;;;;;;9.77;1.10;;;5.50;99.90;;;;;;5111651;27;20423;-94
2024/01/14 11:00:04;;;;;;;12.75;1.20;;;5.30;99.90;;;;;;5131068;27;20790;-94
2024/01/14 11:02:32;;;;;;;11.77;1.13;;;5.30;99.90;;;;;;5125981;27;20397;-93
2024/01/14 11:04:59;;;;;;;11.95;1.27;;;5.30;99.90;;;;;;5110443;27;20889;-93
2024/01/14 11:07:25;;;;;;;10.43;1.23;;;5.40;99.90;;;;;;5109990;27;20426;-93
2024/01/14 11:09:53;;;;;;;11.43;1.20;;;5.30;99.90;;;;;;5110598;27;20410;-93
2024/01/14 11:12:28;;;;;;;13.93;1.15;;;5.40;99.90;;;;;;5118381;27;20401;-94
2024/01/14 11:15:06;;;;;;;10.97;1.00;;;5.50;99.90;;;;;;5125573;27;20407;-94
2024/01/14 11:17:42;;;;;;;11.90;1.10;;;5.60;99.90;;;;;;5113998;27;20774;-93
2024/01/14 11:20:12;;;;;;;9.73;0.95;;;5.80;99.90;;;;;;5130036;27;20410;-93
2024/01/14 11:22:37;;;;;;;12.32;1.20;;;5.90;99.90;;;;;;5112302;27;20493;-92
2024/01/14 11:25:03;;;;;;;11.60;1.20;;;6.20;99.90;;;;;;5124525;27;20461;-91
2024/01/14 11:27:29;;;;;;;9.40;0.90;;;6.30;99.90;;;;;;5120788;27;20395;-92
2024/01/14 11:29:55;;;;;;;12.02;1.33;;;6.70;99.90;;;;;;5114747;27;20819;-92
2024/01/14 11:32:21;;;;;;;8.97;0.70;;;6.30;99.90;;;;;;5130211;27;20419;-92
2024/01/14 11:34:49;;;;;;;9.02;0.98;;;6.40;99.90;;;;;;5111373;27;20440;-92
2024/01/14 11:37:30;;;;;;;9.00;0.90;;;6.40;99.90;;;;;;5125061;27;20784;-93
2024/01/14 11:40:18;;;;;;;11.93;0.93;;;6.50;99.90;;;;;;5118196;27;20778;-94
2024/01/14 11:43:01;;;;;;;9.10;1.00;;;6.40;99.90;;;;;;5121017;27;20405;-92
2024/01/14 11:45:27;;;;;;;11.10;1.05;;;6.30;99.90;;;;;;5129771;27;20405;-92
2024/01/14 11:47:54;;;;;;;10.07;0.83;;;6.20;99.90;;;;;;5127324;27;20409;-92
2024/01/14 11:50:21;;;;;;;8.85;1.00;;;6.10;99.90;;;;;;5109614;27;20391;-92
2024/01/14 11:52:49;;;;;;;10.18;0.65;;;6.10;99.90;;;;;;5110264;27;20398;-94
2024/01/14 11:55:18;;;;;;;9.38;0.88;;;5.90;99.90;;;;;;5124018;27;20405;-93
2024/01/14 11:57:44;;;;;;;8.57;0.70;;;6.30;99.90;;;;;;5120366;27;20422;-92
2024/01/14 12:00:11;;;;;;;8.18;0.80;;;6.70;99.90;;;;;;5115101;27;20396;-94
2024/01/14 12:02:38;;;;;;;9.82;0.90;;;7.00;99.90;;;;;;5146938;27;20473;-93
2024/01/14 12:05:17;;;;;;;6.82;0.70;;;7.30;99.90;;;;;;5109938;27;20745;-92
2024/01/14 12:07:43;;;;;;;6.13;0.50;;;7.50;99.90;;;;;;5108961;27;20411;-93
2024/01/14 12:10:16;;;;;;;10.65;0.60;;;7.30;99.90;;;;;;5139807;27;20403;-93
2024/01/14 12:12:43;;;;;;;7.72;0.60;;;7.50;99.90;;;;;;5121698;27;20398;-92
2024/01/14 12:15:09;;;;;;;7.75;0.55;;;7.50;99.90;;;;;;5113717;27;20888;-92
2024/01/14 12:17:35;;;;;;;5.45;0.40;;;7.30;99.90;;;;;;5147967;27;20483;-95
2024/01/14 12:20:04;;;;;;;5.22;0.40;;;7.10;99.90;;;;;;5130225;27;20393;-93
2024/01/14 12:22:30;;;;;;;7.70;0.65;;;7.00;99.90;;;;;;5114443;27;20402;-96
2024/01/14 12:24:56;;;;;;;5.93;0.30;;;6.80;99.90;;;;;;5119642;27;20396;-95
2024/01/14 12:27:22;;;;;;;5.70;0.40;;;6.70;99.90;;;;;;5125307;27;20400;-92
2024/01/14 12:29:48;;;;;;;7.05;0.63;;;6.50;99.90;;;;;;5126862;27;20399;-93
2024/01/14 12:32:13;;;;;;;6.13;0.50;;;6.40;99.90;;;;;;5129643;27;20470;-92
2024/01/14 12:34:40;;;;;;;5.53;0.30;;;6.30;99.90;;;;;;5114689;27;20517;-93
2024/01/14 12:37:06;;;;;;;6.00;0.40;;;6.60;99.90;;;;;;5113962;27;20416;-95
2024/01/14 12:39:33;;;;;;;6.57;0.50;;;7.00;99.90;;;;;;5094946;28;20402;-91
2024/01/14 12:42:00;;;;;;;5.70;0.30;;;6.80;99.90;;;;;;5109499;27;20417;-94
2024/01/14 12:44:27;;;;;;;4.50;0.40;;;7.00;99.90;;;;;;5131812;27;20408;-95
2024/01/14 12:47:06;;;;;;;4.95;0.40;;;7.10;99.90;;;;;;5130726;27;20403;-93
2024/01/14 12:49:33;;;;;;;4.73;0.30;;;7.20;99.90;;;;;;5123963;27;20400;-96